Currently 72°F in Anza, California, USA
72°F
83°F / 54°F
1 mph W
0.00"
Monday, June 17, 2019 6:47 PM PDT

Anza, California Weather Summary
Last 36 Hours

Temperature Winds Hourly Humidity Dewpoint
Time Report Norm Report Norm Max Gusts Precip. Rpt. Norm Rpt. Norm Pressure
1Mon 06:47 PM  72.1°F  80°F  1 mph W  11 mph  16 mph  0.00"  50%  31%  52°F  46°F  N/A
Mon 06:00 PM  74.9°F  83°F  4 mph NW  13 mph  17 mph  0.00"  46%  28%  52°F  45°F  N/A
Mon 05:00 PM  77.8°F  85°F  calm  13 mph  17 mph  0.00"  49%  24%  56°F  43°F  N/A
Mon 04:00 PM  79.0°F  87°F  calm  13 mph  20 mph  0.00"  47%  21%  56°F  41°F  N/A
Mon 03:00 PM  79.5°F  88°F  7 mph W  12 mph  20 mph  0.00"  46%  19%  56°F  39°F  N/A
Mon 02:00 PM  80.2°F  88°F  6 mph W  11 mph  20 mph  0.00"  42%  19%  54°F  39°F  N/A
Mon 01:00 PM  82.5°F  88°F  9 mph NW  11 mph  20 mph  0.00"  36%  18%  52°F  38°F  N/A
2Mon 12:26 PM  82.9°F  87°F  1 mph N  11 mph  14 mph  ----  32%  19%  49°F  38°F  N/A
Mon 12:00 PM  81.5°F  87°F  calm  10 mph  16 mph  0.00"  31%  19%  47°F  38°F  N/A
Mon 11:00 AM  79.8°F  85°F  4 mph NW  9 mph  13 mph  0.00"  34%  19%  48°F  37°F  N/A
Mon 10:00 AM  77.2°F  83°F  calm  8 mph  11 mph  0.00"  34%  21%  46°F  37°F  N/A
Mon 09:00 AM  72.7°F  79°F  calm  8 mph  11 mph  0.00"  47%  25%  51°F  39°F  N/A
Mon 08:00 AM  67.4°F  74°F  7 mph NW  7 mph  11 mph  0.00"  63%  32%  54°F  42°F  N/A
Mon 07:00 AM  62.0°F  67°F  5 mph NW  6 mph  9 mph  0.00"  81%  44%  56°F  43°F  N/A
3Mon 06:03 AM  53.7°F  60°F  1 mph N  4 mph  8 mph  ----  95%  51%  52°F  41°F  N/A
Mon 06:00 AM  53.7°F  60°F  2 mph N  4 mph  8 mph  0.00"  95%  51%  52°F  41°F  N/A
Mon 05:00 AM  56.0°F  60°F  calm  4 mph  8 mph  0.00"  97%  52%  55°F  41°F  N/A
Mon 04:00 AM  56.5°F  60°F  calm  4 mph  9 mph  0.00"  96%  53%  55°F  42°F  N/A
Mon 03:00 AM  57.1°F  61°F  calm  4 mph  none  0.00"  97%  55%  56°F  44°F  N/A
Mon 02:00 AM  57.3°F  61°F  calm  5 mph  9 mph  0.00"  96%  56%  56°F  44°F  N/A
Mon 01:00 AM  57.9°F  61°F  6 mph NW  5 mph  9 mph  0.00"  96%  57%  57°F  45°F  N/A
Mon 12:00 AM  57.6°F  62°F  2 mph N  6 mph  11 mph  0.00"  96%  57%  56°F  46°F  N/A
Sun 11:00 PM  58.4°F  63°F  7 mph NW  6 mph  14 mph  0.00"  93%  56%  56°F  47°F  N/A
Sun 10:00 PM  59.8°F  65°F  5 mph N  6 mph  13 mph  0.00"  85%  53%  55°F  47°F  N/A
Sun 09:00 PM  63.1°F  67°F  4 mph NW  7 mph  14 mph  0.00"  76%  48%  55°F  46°F  N/A
Sun 08:00 PM  68.1°F  72°F  6 mph NW  8 mph  16 mph  0.00"  66%  42%  56°F  47°F  N/A
Sun 07:00 PM  75.4°F  78°F  2 mph N  11 mph  16 mph  0.00"  46%  34%  52°F  47°F  N/A
Sun 06:00 PM  75.8°F  82°F  4 mph NW  13 mph  18 mph  0.00"  42%  29%  50°F  45°F  N/A
Sun 05:00 PM  79.7°F  85°F  1 mph N  13 mph  19 mph  0.00"  39%  26%  52°F  44°F  N/A
Sun 04:00 PM  81.4°F  86°F  4 mph N  13 mph  19 mph  0.00"  40%  22%  54°F  42°F  N/A
Sun 03:00 PM  82.3°F  87°F  6 mph N  12 mph  21 mph  0.00"  38%  21%  53°F  41°F  N/A
Sun 02:00 PM  85.0°F  87°F  6 mph N  11 mph  18 mph  0.00"  35%  20%  53°F  40°F  N/A
Sun 01:00 PM  78.9°F  87°F  9 mph N  11 mph  21 mph  0.00"  46%  20%  56°F  39°F  N/A
Sun 12:00 PM  84.3°F  86°F  3 mph N  10 mph  20 mph  0.00"  33%  20%  51°F  39°F  N/A
Sun 11:00 AM  84.6°F  84°F  5 mph NW  9 mph  11 mph  0.00"  27%  21%  46°F  39°F  N/A
Sun 10:00 AM  81.9°F  82°F  1 mph W  9 mph  9 mph  0.00"  25%  23%  41°F  39°F  N/A
Sun 09:00 AM  77.2°F  78°F  2 mph W  8 mph  10 mph  0.00"  40%  27%  50°F  41°F  N/A
Sun 08:00 AM  71.4°F  73°F  2 mph N  7 mph  10 mph  0.00"  53%  35%  53°F  43°F  N/A
Sun 07:00 AM  65.6°F  66°F  5 mph SW  6 mph  8 mph  0.00"  63%  46%  52°F  44°F  N/A

  1. Current weather data. No green row appears if the current weather data is also the high or low for the current day.
  2. High temperature for the current day.
  3. Low temperature for the current day.

The Anza, California weather pages are a service of WeatherCurrents. The Anza Valley is southwestern Riverside County, east of Temecula and Aguanga, south of Mount San Jacinto and west of Mount Santa Rosa.
Copyright ©2019  WeatherCurrents. All rights reserved. - Submit questions and comments - Privacy Policy

This page automatically refreshes every 10 minutes.